Home > Products > Valid Products > MTR

000
SAUS45 KPUB 271457
MTRSPD
METAR KSPD 271456Z AUTO 07006KT 07/M01 A3021 RMK AO1 SLP222
T00671006 53015





000
SAUS45 KPUB 271358
MTRSPD
METAR KSPD 271356Z AUTO 23003KT 03/00 A3018 RMK AO1 SLP212 T00330000





000
SAUS45 KPUB 271358
MTRSPD
METAR KSPD 271356Z AUTO 23003KT 03/00 A3018 RMK AO1 SLP212 T00330000





000
SAUS45 KPUB 271257
MTRSPD
METAR KSPD 271256Z AUTO 00000KT M02/M04 A3018 RMK AO1 SLP213
T10171039





000
SAUS45 KPUB 271257
MTRSPD
METAR KSPD 271256Z AUTO 00000KT M02/M04 A3018 RMK AO1 SLP213
T10171039





000
SAUS45 KPUB 271157
MTRSPD
METAR KSPD 271156Z AUTO 24006KT M01/M03 A3016 RMK AO1 SLP197
T10061033 10039 21017 56006





000
SAUS45 KPUB 271157
MTRSPD
METAR KSPD 271156Z AUTO 24006KT M01/M03 A3016 RMK AO1 SLP197
T10061033 10039 21017 56006





000
SAUS45 KPUB 271057
MTRSPD
METAR KSPD 271056Z AUTO 00000KT M01/M03 A3017 RMK AO1 SLP198
T10111033





000
SAUS45 KPUB 271057
MTRSPD
METAR KSPD 271056Z AUTO 00000KT M01/M03 A3017 RMK AO1 SLP198
T10111033





000
SAUS45 KPUB 270957
MTRSPD
METAR KSPD 270956Z AUTO 24005KT 00/M02 A3017 RMK AO1 SLP197
T00001022





000
SAUS45 KPUB 270857
MTRSPD
METAR KSPD 270856Z AUTO 28005KT 01/M03 A3018 RMK AO1 SLP201
T00061028 56004





000
SAUS45 KPUB 270857
MTRSPD
METAR KSPD 270856Z AUTO 28005KT 01/M03 A3018 RMK AO1 SLP201
T00061028 56004





000
SAUS45 KPUB 270757
MTRSPD
METAR KSPD 270756Z AUTO 32003KT 02/M01 A3019 RMK AO1 SLP201
T00171011





000
SAUS45 KPUB 270757
MTRSPD
METAR KSPD 270756Z AUTO 32003KT 02/M01 A3019 RMK AO1 SLP201
T00171011





000
SAUS45 KPUB 270658
MTRSPD
METAR KSPD 270656Z AUTO 30003KT 03/M02 A3018 RMK AO1 SLP199
T00281022 401561028





000
SAUS45 KPUB 270658
MTRSPD
METAR KSPD 270656Z AUTO 30003KT 03/M02 A3018 RMK AO1 SLP199
T00281022 401561028





000
SAUS45 KPUB 270557
MTRSPD
METAR KSPD 270556Z AUTO 00000KT 04/M03 A3020 RMK AO1 SLP203
T00391028 10144 20006 51009





000
SAUS45 KPUB 270557
MTRSPD
METAR KSPD 270556Z AUTO 00000KT 04/M03 A3020 RMK AO1 SLP203
T00391028 10144 20006 51009





000
SAUS45 KPUB 270457
MTRSPD
METAR KSPD 270456Z AUTO 32004KT 01/M03 A3019 RMK AO1 SLP210
T00111028





000
SAUS45 KPUB 270457
MTRSPD
METAR KSPD 270456Z AUTO 32004KT 01/M03 A3019 RMK AO1 SLP210
T00111028





000
SAUS45 KPUB 270357
MTRSPD
METAR KSPD 270356Z AUTO 28007KT 03/M03 A3018 RMK AO1 SLP207
T00331028





000
SAUS45 KPUB 270258
MTRSPD
METAR KSPD 270256Z AUTO 25007KT 03/M03 A3017 RMK AO1 SLP207
T00331033 53012





000
SAUS45 KPUB 270157
MTRSPD
METAR KSPD 270156Z AUTO 30006KT 06/M04 A3015 RMK AO1 SLP205
T00611039





000
SAUS45 KPUB 270057
MTRSPD
METAR KSPD 270056Z AUTO 32006KT 11/M04 A3013 RMK AO1 SLP193
T01061044





000
SAUS45 KPUB 270057
MTRSPD
METAR KSPD 270056Z AUTO 32006KT 11/M04 A3013 RMK AO1 SLP193
T01061044





000
SAUS45 KPUB 270000
MTRSPD
METAR KSPD 262356Z AUTO 33005KT 14/M06 A3013 RMK AO1 SLP187
T01441061 10156 20133 55006





000
SAUS45 KPUB 270000
MTRSPD
METAR KSPD 262356Z AUTO 33005KT 14/M06 A3013 RMK AO1 SLP187
T01441061 10156 20133 55006





000
SAUS45 KPUB 261957
MTRSPD
METAR KSPD 261956Z AUTO 30012G21KT 16/M07 A3016 RMK AO1 SLP198
T01561067





000
SAUS45 KPUB 261857
MTRSPD
METAR KSPD 261856Z AUTO 33012KT 14/M07 A3019 RMK AO1 SLP207
T01441067





000
SAUS45 KPUB 261857
MTRSPD
METAR KSPD 261856Z AUTO 33012KT 14/M07 A3019 RMK AO1 SLP207
T01441067





000
SAUS45 KPUB 261757
MTRSPD
METAR KSPD 261756Z AUTO 30013G19KT 13/M06 A3021 RMK AO1 SLP216
T01331061 10133 21022 58012





000
SAUS45 KPUB 261757
MTRSPD
METAR KSPD 261756Z AUTO 30013G19KT 13/M06 A3021 RMK AO1 SLP216
T01331061 10133 21022 58012





000
SAUS45 KPUB 261657
MTRSPD
METAR KSPD 261656Z AUTO 29009KT 12/M04 A3023 RMK AO1 SLP223
T01221039





000
SAUS45 KPUB 261657
MTRSPD
METAR KSPD 261656Z AUTO 29009KT 12/M04 A3023 RMK AO1 SLP223
T01221039





000
SAUS45 KPUB 261557
MTRSPD
METAR KSPD 261556Z AUTO VRB04KT 09/01 A3025 RMK AO1 SLP235 T00890011





000
SAUS45 KPUB 261457
MTRSPD
METAR KSPD 261456Z AUTO 26003KT 06/02 A3024 RMK AO1 SLP237 T00560017
53004





000
SAUS45 KPUB 261357
MTRSPD
METAR KSPD 261356Z AUTO 29003KT 01/M01 A3024 RMK AO1 SLP247
T00061011





000
SAUS45 KPUB 261257
MTRSPD
METAR KSPD 261256Z AUTO 25006KT M01/M03 A3023 RMK AO1 SLP244
T10111033





000
SAUS45 KPUB 261257
MTRSPD
METAR KSPD 261256Z AUTO 25006KT M01/M03 A3023 RMK AO1 SLP244
T10111033





000
SAUS45 KPUB 261157
MTRSPD
METAR KSPD 261156Z AUTO 28007KT M01/M03 A3023 RMK AO1 SLP246 70007
T10111028 11011 21028 56006





000
SAUS45 KPUB 261157
MTRSPD
METAR KSPD 261156Z AUTO 28007KT M01/M03 A3023 RMK AO1 SLP246 70007
T10111028 11011 21028 56006





000
SAUS45 KPUB 261057
MTRSPD
METAR KSPD 261056Z AUTO 29009KT M02/M03 A3024 RMK AO1 SLP246
T10171033





000
SAUS45 KPUB 261057
MTRSPD
METAR KSPD 261056Z AUTO 29009KT M02/M03 A3024 RMK AO1 SLP246
T10171033





000
SAUS45 KPUB 260957
MTRSPD
METAR KSPD 260956Z AUTO 29006KT M02/M03 A3024 RMK AO1 SLP246
T10221033





000
SAUS45 KPUB 260857
MTRSPD
METAR KSPD 260856Z AUTO 28007KT M02/M03 A3025 RMK AO1 SLP244
T10171028 58002





000
SAUS45 KPUB 260757
MTRSPD
METAR KSPD 260756Z AUTO 29007KT M02/M02 A3026 RMK AO1 SLP239
T10171022





000
SAUS45 KPUB 260657
MTRSPD
METAR KSPD 260656Z AUTO 31008KT M02/M02 A3026 RMK AO1 SLP241
T10171022 401331022





000
SAUS45 KPUB 260557
MTRSPD
METAR KSPD 260556Z AUTO 33008KT M02/M02 A3026 RMK AO1 SLP237 60002
T10171022 10022 21022 58001





000
SAUS45 KPUB 260557
MTRSPD
METAR KSPD 260556Z AUTO 33008KT M02/M02 A3026 RMK AO1 SLP237 60002
T10171022 10022 21022 58001





000
SAUS45 KPUB 260457
MTRSPD
METAR KSPD 260456Z AUTO 33009KT M01/M01 A3027 RMK AO1 SLP237
T10061006





000
SAUS45 KPUB 260357
MTRSPD
METAR KSPD 260356Z AUTO 34009KT 00/M01 A3027 RMK AO1 SLP238
T00001006





000
SAUS45 KPUB 260257
MTRSPD
METAR KSPD 260256Z AUTO 35010KT 02/01 A3026 RMK AO1 SLP239 60002
T00170011 53020





000
SAUS45 KPUB 260257
MTRSPD
METAR KSPD 260256Z AUTO 35010KT 02/01 A3026 RMK AO1 SLP239 60002
T00170011 53020





000
SAUS45 KPUB 260157
MTRSPD
METAR KSPD 260156Z AUTO 34010KT 02/02 A3024 RMK AO1 SLP234 T00170017





000
SAUS45 KPUB 260057
MTRSPD
METAR KSPD 260056Z AUTO 36013KT 01/01 A3022 RMK AO1 SLP233 P0002
T00110011





000
SAUS45 KPUB 252358
MTRSPD
METAR KSPD 252356Z AUTO 36017KT 01/01 A3020 RMK AO1 PK WND
36029/2311 SLP224 P0003 60005 T00110006 10128 20011 51033





000
SAUS45 KPUB 252358
MTRSPD
METAR KSPD 252356Z AUTO 36017KT 01/01 A3020 RMK AO1 PK WND
36029/2311 SLP224 P0003 60005 T00110006 10128 20011 51033





000
SAUS45 KPUB 252257
MTRSPD
METAR KSPD 252256Z AUTO 36020G28KT 02/02 A3017 RMK AO1 PK WND
36034/2210 SLP205 P0002 T00220017





000
SAUS45 KPUB 252257
MTRSPD
METAR KSPD 252256Z AUTO 36020G28KT 02/02 A3017 RMK AO1 PK WND
36034/2210 SLP205 P0002 T00220017





000
SAUS45 KPUB 252157
MTRSPD
METAR KSPD 252156Z AUTO 35025G34KT 04/02 A3013 RMK AO1 PK WND
35034/2149 SLP194 T00390022





000
SAUS45 KPUB 252058
MTRSPD
METAR KSPD 252056Z AUTO 36025G33KT 07/02 A3009 RMK AO1 PK WND
36034/2035 SLP177 T00720017 53023





000
SAUS45 KPUB 251958
MTRSPD
METAR KSPD 251956Z AUTO 01024G32KT 10/01 A3005 RMK AO1 PK WND
01032/1945 SLP159 T01000006





000
SAUS45 KPUB 251858
MTRSPD
METAR KSPD 251856Z AUTO 36024G33KT 11/01 A3003 RMK AO1 PK WND
36034/1838 SLP151 T01060006





000
SAUS45 KPUB 251858
MTRSPD
METAR KSPD 251856Z AUTO 36024G33KT 11/01 A3003 RMK AO1 PK WND
36034/1838 SLP151 T01060006





000
SAUS45 KPUB 251758
MTRSPD
METAR KSPD 251756Z AUTO 02023G30KT 12/M01 A3001 RMK AO1 PK WND
01033/1716 SLP137 T01221006 10133 20028 51015





000
SAUS45 KPUB 251758
MTRSPD
METAR KSPD 251756Z AUTO 02023G30KT 12/M01 A3001 RMK AO1 PK WND
01033/1716 SLP137 T01221006 10133 20028 51015





000
SAUS45 KPUB 251657
MTRSPD
METAR KSPD 251656Z AUTO 02022G32KT 12/00 A3000 RMK AO1 PK WND
02032/1601 SLP132 T01220000





000
SAUS45 KPUB 251657
MTRSPD
METAR KSPD 251656Z AUTO 02022G32KT 12/00 A3000 RMK AO1 PK WND
02032/1601 SLP132 T01220000





000
SAUS45 KPUB 251557
MTRSPD
METAR KSPD 251556Z AUTO 03026G32KT 11/00 A2998 RMK AO1 PK WND
04033/1542 SLP124 T01110000





000
SAUS45 KPUB 251557
MTRSPD
METAR KSPD 251556Z AUTO 03026G32KT 11/00 A2998 RMK AO1 PK WND
04033/1542 SLP124 T01110000





000
SAUS45 KPUB 251457
MTRSPD
METAR KSPD 251456Z AUTO 04023G32KT 08/00 A2996 RMK AO1 PK WND
04033/1441 SLP116 T00830000 51018





000
SAUS45 KPUB 251357
MTRSPD
METAR KSPD 251356Z AUTO 02020G26KT 06/M02 A2994 RMK AO1 PK WND
02026/1355 SLP116 T00561017





000
SAUS45 KPUB 251357
MTRSPD
METAR KSPD 251356Z AUTO 02020G26KT 06/M02 A2994 RMK AO1 PK WND
02026/1355 SLP116 T00561017





000
SAUS45 KPUB 251257
MTRSPD
METAR KSPD 251256Z AUTO 03013KT 03/M06 A2992 RMK AO1 SLP110
T00331061





000
SAUS45 KPUB 251257
MTRSPD
METAR KSPD 251256Z AUTO 03013KT 03/M06 A2992 RMK AO1 SLP110
T00331061





000
SAUS45 KPUB 251157
MTRSPD
METAR KSPD 251156Z AUTO 01011KT 04/M06 A2990 RMK AO1 SLP093
T00391056 10078 20022 53015





000
SAUS45 KPUB 251157
MTRSPD
METAR KSPD 251156Z AUTO 01011KT 04/M06 A2990 RMK AO1 SLP093
T00391056 10078 20022 53015





000
SAUS45 KPUB 251057
MTRSPD
METAR KSPD 251056Z AUTO 34019G24KT 07/M04 A2985 RMK AO1 SLP070
T00721044





000
SAUS45 KPUB 251057
MTRSPD
METAR KSPD 251056Z AUTO 34019G24KT 07/M04 A2985 RMK AO1 SLP070
T00721044





000
SAUS45 KPUB 250958
MTRSPD
METAR KSPD 250956Z AUTO 26007KT 04/M04 A2984 RMK AO1 SLP068
T00441039





000
SAUS45 KPUB 250858
MTRSPD
METAR KSPD 250856Z AUTO 29008KT 03/M04 A2984 RMK AO1 SLP073
T00281039 58014





000
SAUS45 KPUB 250858
MTRSPD
METAR KSPD 250856Z AUTO 29008KT 03/M04 A2984 RMK AO1 SLP073
T00281039 58014





000
SAUS45 KPUB 250757
MTRSPD
METAR KSPD 250756Z AUTO 00000KT 04/M04 A2986 RMK AO1 SLP078
T00391044





000
SAUS45 KPUB 250657
MTRSPD
METAR KSPD 250656Z AUTO 03005KT 04/M04 A2987 RMK AO1 SLP082
T00441044 402061017





000
SAUS45 KPUB 250657
MTRSPD
METAR KSPD 250656Z AUTO 03005KT 04/M04 A2987 RMK AO1 SLP082
T00441044 402061017





000
SAUS45 KPUB 250557
MTRSPD
METAR KSPD 250556Z AUTO 17004KT 05/M04 A2989 RMK AO1 SLP090
T00501044 10167 20050 58001





000
SAUS45 KPUB 250557
MTRSPD
METAR KSPD 250556Z AUTO 17004KT 05/M04 A2989 RMK AO1 SLP090
T00501044 10167 20050 58001





000
SAUS45 KPUB 250457
MTRSPD
METAR KSPD 250456Z AUTO 01003KT 07/M05 A2990 RMK AO1 SLP091
T00671050





000
SAUS45 KPUB 250457
MTRSPD
METAR KSPD 250456Z AUTO 01003KT 07/M05 A2990 RMK AO1 SLP091
T00671050





000
SAUS45 KPUB 250357
MTRSPD
METAR KSPD 250356Z AUTO 13008KT 08/M05 A2989 RMK AO1 SLP088
T00831050





000
SAUS45 KPUB 250257
MTRSPD
METAR KSPD 250256Z AUTO 12013KT 11/M07 A2989 RMK AO1 SLP090
T01111067 53002





000
SAUS45 KPUB 250257
MTRSPD
METAR KSPD 250256Z AUTO 12013KT 11/M07 A2989 RMK AO1 SLP090
T01111067 53002





000
SAUS45 KPUB 250157
MTRSPD
METAR KSPD 250156Z AUTO 12010KT 11/M09 A2988 RMK AO1 SLP097
T01061094





000
SAUS45 KPUB 250157
MTRSPD
METAR KSPD 250156Z AUTO 12010KT 11/M09 A2988 RMK AO1 SLP097
T01061094





000
SAUS45 KPUB 250057
MTRSPD
METAR KSPD 250056Z AUTO 12008KT 13/M09 A2988 RMK AO1 SLP093
T01281089





000
SAUS45 KPUB 250057
MTRSPD
METAR KSPD 250056Z AUTO 12008KT 13/M09 A2988 RMK AO1 SLP093
T01281089





000
SAUS45 KPUB 242357
MTRSPD
METAR KSPD 242356Z AUTO 13007KT 17/M09 A2989 RMK AO1 SLP092
T01671089 10206 20167 56011





000
SAUS45 KPUB 242357
MTRSPD
METAR KSPD 242356Z AUTO 13007KT 17/M09 A2989 RMK AO1 SLP092
T01671089 10206 20167 56011





000
SAUS45 KPUB 242257
MTRSPD
METAR KSPD 242256Z AUTO 18006KT 18/M13 A2989 RMK AO1 SLP094
T01781133





000
SAUS45 KPUB 242257
MTRSPD
METAR KSPD 242256Z AUTO 18006KT 18/M13 A2989 RMK AO1 SLP094
T01781133





000
SAUS45 KPUB 242157
MTRSPD
METAR KSPD 242156Z AUTO 34003KT 19/M15 A2991 RMK AO1 SLP097
T01941150





000
SAUS45 KPUB 242057
MTRSPD
METAR KSPD 242056Z AUTO 28009G14KT 19/M16 A2993 RMK AO1 SLP100
T01941156 58003





000
SAUS45 KPUB 241957
MTRSPD
METAR KSPD 241956Z AUTO 33011G22KT 280V350 19/M16 A2993 RMK AO1
SLP100 T01941156





000
SAUS45 KPUB 241857
MTRSPD
METAR KSPD 241856Z AUTO 30018G26KT 19/M13 A2995 RMK AO1 PK WND
34031/1759 SLP106 T01891133





000
SAUS45 KPUB 241857
MTRSPD
METAR KSPD 241856Z AUTO 30018G26KT 19/M13 A2995 RMK AO1 PK WND
34031/1759 SLP106 T01891133





000
SAUS45 KPUB 241757
MTRSPD
METAR KSPD 241756Z AUTO 33016G25KT 17/M06 A2994 RMK AO1 PK WND
32034/1705 SLP100 T01721061 10178 20033 58012





000
SAUS45 KPUB 241757
MTRSPD
METAR KSPD 241756Z AUTO 33016G25KT 17/M06 A2994 RMK AO1 PK WND
32034/1705 SLP100 T01721061 10178 20033 58012





000
SAUS45 KPUB 241657
MTRSPD
METAR KSPD 241656Z AUTO 33027G34KT 17/M09 A2997 RMK AO1 PK WND
32034/1654 SLP121 T01721094





000
SAUS45 KPUB 241557
MTRSPD
METAR KSPD 241556Z AUTO 31019G26KT 16/M01 A2999 RMK AO1 PK WND
31026/1553 SLP124 T01561006





    US Dept of Commerce
    National Oceanic and Atmospheric Administration
    National Weather Service
    1325 East West Highway
    Silver Spring, MD 20910
    Page Author: NWS Internet Services Team
Disclaimer
Information Quality
Credits
Glossary
Privacy Policy
Freedom of Information Act (FOIA)
About Us
Career Opportunities